Time;durP1;ratioP1;P1;durP2;ratioP2;P2;SDS_P1;SDS_P2;PMS_P1;PMS_P2;Temp;Humidity;BMP_temperature;BMP_pressure;BME280_temperature;BME280_humidity;BME280_pressure;Samples;Min_cycle;Max_cycle;Signal;HPM_P1;HPM_P2
2021/05/22 00:08:58;;;;;;;0.30;0.30;;;18.30;99.90;;;;;;20581828;28;20232;-64
2021/05/22 00:19:01;;;;;;;0.30;0.30;;;18.10;99.90;;;;;;20528781;28;20210;-65
2021/05/22 00:29:05;;;;;;;0.27;0.23;;;17.80;99.90;;;;;;20542424;28;20238;-65
2021/05/22 00:39:08;;;;;;;3.40;0.73;;;17.60;99.90;;;;;;20588349;28;20192;-64
2021/05/22 00:49:14;;;;;;;0.27;0.27;;;17.90;99.90;;;;;;20602891;28;20227;-64
2021/05/22 00:59:18;;;;;;;2.93;0.40;;;18.00;99.90;;;;;;20600158;28;20290;-64
2021/05/22 01:09:24;;;;;;;0.73;0.37;;;17.90;99.90;;;;;;20588850;28;20242;-64
2021/05/22 01:19:40;;;;;;;1.10;0.87;;;17.60;99.90;;;;;;20518992;28;20336;-64
2021/05/22 01:29:44;;;;;;;0.50;0.50;;;17.30;99.90;;;;;;20536582;28;20277;-64
2021/05/22 01:39:47;;;;;;;0.20;0.10;;;17.20;99.90;;;;;;20587326;28;20215;-64
2021/05/22 01:49:53;;;;;;;0.20;0.10;;;17.20;99.90;;;;;;20615332;28;20215;-65
2021/05/22 01:59:56;;;;;;;0.40;0.37;;;17.10;99.90;;;;;;20595839;28;20200;-65
2021/05/22 02:10:02;;;;;;;0.20;0.10;;;16.90;99.90;;;;;;20577653;28;20223;-64
2021/05/22 02:20:06;;;;;;;0.20;0.10;;;16.80;99.90;;;;;;20532832;28;20657;-64
2021/05/22 02:30:13;;;;;;;0.20;0.10;;;16.60;99.90;;;;;;20532439;28;20281;-64
2021/05/22 02:40:20;;;;;;;0.20;0.10;;;16.60;99.90;;;;;;20521885;28;20525;-65
2021/05/22 02:50:26;;;;;;;0.20;0.00;;;16.60;99.90;;;;;;20530678;28;20231;-64
2021/05/22 03:00:30;;;;;;;1.03;0.27;;;17.10;99.90;;;;;;20528943;28;20231;-64
2021/05/22 03:10:34;;;;;;;0.67;0.30;;;16.90;99.90;;;;;;20472989;28;20586;-63
2021/05/22 03:20:37;;;;;;;0.20;0.10;;;16.80;99.90;;;;;;20448416;29;20247;-64
2021/05/22 03:30:42;;;;;;;0.43;0.40;;;16.50;99.90;;;;;;20450042;29;20363;-64
2021/05/22 03:40:46;;;;;;;0.20;0.00;;;16.70;99.90;;;;;;20510169;28;20553;-64
2021/05/22 03:50:50;;;;;;;0.20;0.03;;;16.50;99.90;;;;;;20527209;28;20232;-64
2021/05/22 04:00:54;;;;;;;0.20;0.00;;;16.30;99.90;;;;;;20539248;28;20613;-63
2021/05/22 04:10:58;;;;;;;0.20;0.00;;;16.00;99.90;;;;;;20541727;28;20731;-63
2021/05/22 04:21:02;;;;;;;0.20;0.00;;;16.00;99.90;;;;;;20523343;28;20200;-64
2021/05/22 04:31:06;;;;;;;0.30;0.20;;;15.90;99.90;;;;;;20567499;28;20389;-64
2021/05/22 04:41:09;;;;;;;0.20;0.10;;;15.80;99.90;;;;;;20620702;28;20431;-63
2021/05/22 04:51:15;;;;;;;0.27;0.23;;;16.10;99.90;;;;;;20601419;28;20215;-63
2021/05/22 05:01:18;;;;;;;0.50;0.47;;;16.10;99.90;;;;;;20599736;28;20838;-63
2021/05/22 05:11:22;;;;;;;0.20;0.00;;;16.10;99.90;;;;;;20553186;28;20212;-63
2021/05/22 05:21:25;;;;;;;0.20;0.10;;;16.20;99.90;;;;;;20538211;28;20654;-63
2021/05/22 05:31:30;;;;;;;0.60;0.10;;;16.30;99.90;;;;;;20534855;28;20314;-63
2021/05/22 05:41:33;;;;;;;0.20;0.10;;;16.30;99.90;;;;;;20535518;28;20204;-65
2021/05/22 05:51:37;;;;;;;0.20;0.10;;;16.50;99.90;;;;;;20517188;28;20227;-66
2021/05/22 06:01:40;;;;;;;0.30;0.30;;;16.60;99.90;;;;;;20537664;28;20227;-66
2021/05/22 06:11:44;;;;;;;0.20;0.10;;;16.80;99.90;;;;;;20564139;28;20222;-65
2021/05/22 06:21:47;;;;;;;0.20;0.17;;;17.10;99.90;;;;;;20614780;28;20196;-65
2021/05/22 06:31:51;;;;;;;0.20;0.00;;;17.60;99.90;;;;;;20595854;28;20245;-65
2021/05/22 06:41:56;;;;;;;0.70;0.40;;;17.80;99.90;;;;;;20612796;28;20199;-65
2021/05/22 06:52:01;;;;;;;0.20;0.00;;;17.90;99.90;;;;;;20612122;28;20246;-65
2021/05/22 07:02:04;;;;;;;0.27;0.27;;;18.00;99.90;;;;;;20577897;28;20231;-64
2021/05/22 07:12:10;;;;;;;0.73;0.73;;;18.00;99.90;;;;;;20525200;28;20331;-65
2021/05/22 07:22:13;;;;;;;0.20;0.10;;;18.00;99.90;;;;;;20530722;28;20211;-66
2021/05/22 07:32:18;;;;;;;0.23;0.17;;;18.30;99.90;;;;;;20536155;28;20710;-65
2021/05/22 07:42:22;;;;;;;3.03;0.23;;;18.50;99.90;;;;;;20543492;28;20239;-65
2021/05/22 07:52:27;;;;;;;0.50;0.17;;;18.60;99.90;;;;;;20524150;28;20228;-65
2021/05/22 08:02:31;;;;;;;0.20;0.10;;;18.80;99.90;;;;;;20540893;28;20228;-64
2021/05/22 08:12:35;;;;;;;0.20;0.10;;;19.00;99.90;;;;;;20571400;28;20211;-63
2021/05/22 08:22:38;;;;;;;0.50;0.43;;;19.00;99.90;;;;;;20613667;28;20211;-62
2021/05/22 08:32:43;;;;;;;0.20;0.10;;;19.40;99.90;;;;;;20618599;28;20348;-63
2021/05/22 08:42:46;;;;;;;0.20;0.10;;;19.90;99.90;;;;;;20589870;28;20685;-64
2021/05/22 08:52:53;;;;;;;0.27;0.23;;;19.30;99.90;;;;;;20560318;28;20731;-62
2021/05/22 09:02:56;;;;;;;0.20;0.10;;;20.20;99.90;;;;;;20520194;28;20697;-61
2021/05/22 09:13:03;;;;;;;0.20;0.13;;;19.50;99.90;;;;;;20589441;28;20309;-64
2021/05/22 09:23:09;;;;;;;0.30;0.23;;;20.00;99.90;;;;;;20596305;28;20199;-63
2021/05/22 09:33:15;;;;;;;0.33;0.33;;;20.10;99.90;;;;;;20615143;28;20698;-62
2021/05/22 09:43:18;;;;;;;0.40;0.23;;;20.10;99.90;;;;;;20613843;28;20218;-63
2021/05/22 09:53:30;;;;;;;0.20;0.20;;;20.60;99.90;;;;;;20611730;28;20605;-66
2021/05/22 10:03:33;;;;;;;0.30;0.30;;;20.30;99.90;;;;;;20611836;28;20229;-63
2021/05/22 10:13:40;;;;;;;0.20;0.10;;;20.30;99.90;;;;;;20610704;28;20202;-61
2021/05/22 10:23:44;;;;;;;0.30;0.30;;;20.80;99.90;;;;;;20610575;28;20195;-63
2021/05/22 10:33:48;;;;;;;17.27;0.77;;;21.20;99.90;;;;;;20610795;28;20496;-63
2021/05/22 10:43:54;;;;;;;0.30;0.20;;;20.80;99.90;;;;;;20591947;28;20227;-63
2021/05/22 10:54:00;;;;;;;1.10;0.37;;;20.60;99.90;;;;;;20607403;28;20641;-62
2021/05/22 11:04:40;;;;;;;0.73;0.30;;;20.90;99.90;;;;;;20590628;28;20592;-64
2021/05/22 11:14:47;;;;;;;0.20;0.20;;;20.90;99.90;;;;;;20516190;28;20188;-62
2021/05/22 11:25:00;;;;;;;0.20;0.07;;;20.90;99.90;;;;;;20527253;28;20314;-63
2021/05/22 11:35:35;;;;;;;0.40;0.30;;;20.50;99.90;;;;;;20526208;28;20852;-62
2021/05/22 11:45:38;;;;;;;0.40;0.40;;;21.60;99.90;;;;;;20524243;28;20222;-63
2021/05/22 11:55:42;;;;;;;0.90;0.45;;;22.60;99.90;;;;;;20508903;28;20849;-63
2021/05/22 12:05:45;;;;;;;1.35;0.50;;;23.80;99.90;;;;;;20525704;28;20331;-63
2021/05/22 12:15:49;;;;;;;4.75;0.77;;;24.40;99.90;;;;;;20609952;28;20867;-63
2021/05/22 12:25:53;;;;;;;26.90;1.02;;;24.50;99.90;;;;;;20619153;28;20465;-64
2021/05/22 12:36:05;;;;;;;0.98;0.25;;;24.80;99.90;;;;;;20603775;28;20485;-65
2021/05/22 12:46:22;;;;;;;14.23;0.50;;;25.50;99.90;;;;;;20613095;28;20231;-64
2021/05/22 12:56:27;;;;;;;0.35;0.35;;;25.70;99.90;;;;;;20621175;28;20844;-64
2021/05/22 13:06:30;;;;;;;0.55;0.20;;;24.80;99.90;;;;;;20611214;28;20717;-62
2021/05/22 13:16:35;;;;;;;1.70;0.20;;;24.70;99.90;;;;;;20537873;28;20230;-65
2021/05/22 13:26:38;;;;;;;3.38;0.60;;;24.20;99.90;;;;;;20544032;28;20315;-65
2021/05/22 13:36:43;;;;;;;0.73;0.52;;;24.50;99.90;;;;;;20581051;28;20284;-63
2021/05/22 13:46:47;;;;;;;0.20;0.20;;;24.20;99.90;;;;;;20541864;28;20347;-64
2021/05/22 13:56:51;;;;;;;0.30;0.10;;;24.90;99.90;;;;;;20533247;28;20715;-63
2021/05/22 14:06:54;;;;;;;0.20;0.10;;;25.40;99.90;;;;;;20531800;28;20232;-66
2021/05/22 14:16:58;;;;;;;0.20;0.10;;;26.30;99.90;;;;;;20533177;28;20309;-64
2021/05/22 14:27:01;;;;;;;0.63;0.50;;;24.50;99.90;;;;;;20531146;28;20764;-64
2021/05/22 14:37:06;;;;;;;1.10;1.00;;;24.80;99.90;;;;;;20532495;28;20578;-63
2021/05/22 14:47:09;;;;;;;0.20;0.10;;;22.90;99.90;;;;;;20529617;28;20816;-64
2021/05/22 14:57:13;;;;;;;0.63;0.37;;;22.80;99.90;;;;;;20531465;28;20283;-64
2021/05/22 15:07:16;;;;;;;1.13;0.40;;;23.10;99.90;;;;;;20522574;28;20297;-64
2021/05/22 15:17:24;;;;;;;0.40;0.30;;;23.70;99.90;;;;;;20609536;28;20195;-63
2021/05/22 15:27:27;;;;;;;0.20;0.10;;;22.90;99.90;;;;;;20608321;28;20313;-64
2021/05/22 15:37:31;;;;;;;1.50;0.97;;;22.70;99.90;;;;;;20591606;28;20307;-64
2021/05/22 15:48:05;;;;;;;6.00;1.03;;;22.20;99.90;;;;;;20566752;28;20224;-64
2021/05/22 15:58:11;;;;;;;0.30;0.17;;;21.40;99.90;;;;;;20548937;28;20529;-64
2021/05/22 16:08:15;;;;;;;0.23;0.17;;;21.00;99.90;;;;;;20588241;28;20226;-64
2021/05/22 16:18:18;;;;;;;0.63;0.23;;;20.70;99.90;;;;;;20561375;28;20222;-64
2021/05/22 16:28:22;;;;;;;0.47;0.47;;;20.40;99.90;;;;;;20529201;28;20529;-63
2021/05/22 16:38:26;;;;;;;0.30;0.30;;;20.50;99.90;;;;;;20533897;28;20215;-62
2021/05/22 16:48:30;;;;;;;0.87;0.87;;;20.50;99.90;;;;;;20457303;28;20236;-63
2021/05/22 16:58:34;;;;;;;11.63;1.30;;;20.10;99.90;;;;;;20460487;29;20201;-62
2021/05/22 17:08:37;;;;;;;0.43;0.43;;;20.00;99.90;;;;;;20478372;28;20314;-62
2021/05/22 17:18:42;;;;;;;0.70;0.70;;;19.90;99.90;;;;;;20536766;28;20545;-62
2021/05/22 17:28:45;;;;;;;0.40;0.27;;;19.70;99.90;;;;;;20554770;28;20223;-61
2021/05/22 17:38:49;;;;;;;1.33;0.70;;;19.40;99.90;;;;;;20539523;28;20195;-62
2021/05/22 17:48:52;;;;;;;0.20;0.03;;;19.30;99.90;;;;;;20533161;28;20224;-62
2021/05/22 17:58:57;;;;;;;3.90;0.37;;;19.00;99.90;;;;;;20530859;28;20367;-62
2021/05/22 18:09:00;;;;;;;0.93;0.43;;;18.60;99.90;;;;;;20525771;28;20227;-62
2021/05/22 18:19:04;;;;;;;0.43;0.43;;;19.40;99.90;;;;;;20527334;28;20196;-62
2021/05/22 18:29:07;;;;;;;3.20;1.80;;;20.10;99.90;;;;;;20528879;28;20238;-62
2021/05/22 18:39:11;;;;;;;0.93;0.80;;;19.20;99.90;;;;;;20530403;28;20555;-60
2021/05/22 18:49:14;;;;;;;0.60;0.53;;;19.50;99.90;;;;;;20524830;28;20276;-59
2021/05/22 18:59:18;;;;;;;0.37;0.33;;;18.70;99.90;;;;;;20528812;28;20299;-62
2021/05/22 19:09:21;;;;;;;0.30;0.30;;;18.40;99.90;;;;;;20555766;28;20243;-62
2021/05/22 19:19:25;;;;;;;0.30;0.30;;;18.10;99.90;;;;;;20610050;28;20728;-63
2021/05/22 19:29:29;;;;;;;0.53;0.53;;;17.90;99.90;;;;;;20624590;28;20223;-62
2021/05/22 19:39:33;;;;;;;3.33;0.83;;;17.70;99.90;;;;;;20616667;28;20205;-62
2021/05/22 19:49:40;;;;;;;10.37;0.63;;;17.60;99.90;;;;;;20634976;28;20766;-61
2021/05/22 19:59:44;;;;;;;1.77;0.87;;;17.40;99.90;;;;;;20631248;28;20323;-62
2021/05/22 20:09:47;;;;;;;1.00;0.90;;;17.30;99.90;;;;;;20580473;28;20224;-63
2021/05/22 20:19:51;;;;;;;3.93;1.30;;;17.50;99.90;;;;;;20552518;28;20196;-63
2021/05/22 20:29:54;;;;;;;0.63;0.63;;;17.30;99.90;;;;;;20512342;28;20275;-62
2021/05/22 20:39:58;;;;;;;0.93;0.47;;;16.80;99.90;;;;;;20539691;28;20244;-62
2021/05/22 20:50:01;;;;;;;0.20;0.17;;;16.50;99.90;;;;;;20538085;28;20665;-63
2021/05/22 21:00:11;;;;;;;10.57;0.63;;;16.40;99.90;;;;;;20508941;28;20260;-62
2021/05/22 21:10:15;;;;;;;2.43;0.43;;;15.90;99.90;;;;;;20547562;28;20280;-62
2021/05/22 21:20:21;;;;;;;1.90;1.00;;;15.90;99.90;;;;;;20532773;28;20205;-63
2021/05/22 21:30:26;;;;;;;0.20;0.20;;;15.80;99.90;;;;;;20534314;28;20255;-62
2021/05/22 21:40:30;;;;;;;0.50;0.40;;;15.70;99.90;;;;;;20532820;28;20197;-61
2021/05/22 21:50:33;;;;;;;1.37;1.27;;;15.60;99.90;;;;;;20515822;28;20769;-62
2021/05/22 22:00:47;;;;;;;1.60;1.50;;;15.50;99.90;;;;;;20469121;28;20234;-61
2021/05/22 22:10:52;;;;;;;0.20;0.10;;;15.50;99.90;;;;;;20490821;28;20223;-62
2021/05/22 22:20:58;;;;;;;0.30;0.20;;;15.60;99.90;;;;;;20532408;28;20739;-61
2021/05/22 22:31:02;;;;;;;0.20;0.07;;;15.40;99.90;;;;;;20473339;28;20570;-62
2021/05/22 22:41:07;;;;;;;9.10;0.40;;;15.30;99.90;;;;;;20530274;28;20690;-61
2021/05/22 22:51:10;;;;;;;0.37;0.33;;;15.10;99.90;;;;;;20435514;29;20224;-62
2021/05/22 23:01:15;;;;;;;0.33;0.33;;;15.20;99.90;;;;;;20539162;28;20488;-61
2021/05/22 23:11:18;;;;;;;0.40;0.30;;;15.10;99.90;;;;;;20528930;28;20231;-62
2021/05/22 23:21:23;;;;;;;0.30;0.23;;;14.90;99.90;;;;;;20530380;28;20233;-62
2021/05/22 23:31:26;;;;;;;0.20;0.20;;;15.00;99.90;;;;;;20528674;28;20375;-62
2021/05/22 23:41:31;;;;;;;0.30;0.30;;;15.00;99.90;;;;;;20557635;28;20207;-62
2021/05/22 23:51:34;;;;;;;0.30;0.30;;;15.10;99.90;;;;;;20593543;28;20319;-62
